Time;durP1;ratioP1;P1;durP2;ratioP2;P2;SDS_P1;SDS_P2;PMS_P1;PMS_P2;Temp;Humidity;BMP_temperature;BMP_pressure;BME280_temperature;BME280_humidity;BME280_pressure;Samples;Min_cycle;Max_cycle;Signal;HPM_P1;HPM_P2
2022/08/30 00:02:15;;;;;;;1.38;1.00;;;;;;;23.87;47.29;102133.88;5066408;28;20104;-45
2022/08/30 00:04:40;;;;;;;1.35;0.90;;;;;;;23.84;47.19;102131.53;5056736;28;20044;-48
2022/08/30 00:07:06;;;;;;;1.35;0.90;;;;;;;23.87;47.18;102136.59;5067055;28;20028;-44
2022/08/30 00:09:31;;;;;;;1.23;0.68;;;;;;;23.85;47.07;102133.22;5067774;28;20039;-46
2022/08/30 00:11:57;;;;;;;1.33;0.85;;;;;;;23.83;47.15;102122.53;5068634;28;20542;-44
2022/08/30 00:14:22;;;;;;;1.35;0.90;;;;;;;23.84;47.19;102139.69;5065680;28;20025;-46
2022/08/30 00:16:47;;;;;;;1.00;0.63;;;;;;;23.83;47.28;102133.41;5051071;28;20051;-45
2022/08/30 00:19:13;;;;;;;1.50;0.90;;;;;;;23.67;47.33;102104.38;5063453;28;20166;-44
2022/08/30 00:21:39;;;;;;;1.00;0.60;;;;;;;23.80;47.08;102125.59;5066227;28;20063;-45
2022/08/30 00:24:05;;;;;;;1.02;0.63;;;;;;;23.81;47.19;102127.28;5064386;28;20021;-45
2022/08/30 00:26:30;;;;;;;1.65;0.80;;;;;;;23.81;47.25;102137.28;5055793;28;20040;-45
2022/08/30 00:28:55;;;;;;;0.95;0.70;;;;;;;23.79;47.15;102129.34;5058483;28;20447;-45
2022/08/30 00:31:20;;;;;;;1.00;0.70;;;;;;;23.80;47.08;102136.44;5048965;28;20033;-47
2022/08/30 00:33:45;;;;;;;0.90;0.60;;;;;;;23.79;47.05;102126.63;5049340;28;20083;-46
2022/08/30 00:36:11;;;;;;;1.20;0.70;;;;;;;23.78;47.16;102129.47;5059590;28;20051;-48
2022/08/30 00:38:36;;;;;;;0.85;0.52;;;;;;;23.78;47.18;102127.59;5053069;28;20021;-46
2022/08/30 00:41:01;;;;;;;0.93;0.50;;;;;;;23.77;47.17;102123.22;5051778;28;20033;-46
2022/08/30 00:43:29;;;;;;;1.08;0.70;;;;;;;23.72;47.24;102122.03;5059125;28;20427;-47
2022/08/30 00:45:54;;;;;;;1.02;0.70;;;;;;;23.73;47.20;102111.00;5057087;28;20025;-47
2022/08/30 00:48:19;;;;;;;1.27;1.00;;;;;;;23.75;47.02;102116.28;5063617;28;20063;-46
2022/08/30 00:50:48;;;;;;;0.85;0.70;;;;;;;23.76;47.10;102123.38;5063881;28;20096;-46
2022/08/30 00:53:18;;;;;;;1.35;0.85;;;;;;;23.75;47.06;102118.97;5049617;28;20088;-45
2022/08/30 00:55:44;;;;;;;0.85;0.60;;;;;;;23.74;47.06;102126.25;5055440;28;20072;-45
2022/08/30 00:58:14;;;;;;;0.70;0.60;;;;;;;23.72;47.11;102122.88;5057463;28;20028;-47
2022/08/30 01:00:40;;;;;;;1.70;0.85;;;;;;;23.72;47.05;102122.88;5052360;28;20485;-46
2022/08/30 01:03:07;;;;;;;1.35;0.82;;;;;;;23.72;47.26;102124.75;5061153;28;20025;-47
2022/08/30 01:05:32;;;;;;;1.02;0.75;;;;;;;23.72;47.02;102124.75;5064886;28;20092;-44
2022/08/30 01:07:58;;;;;;;1.23;0.80;;;;;;;23.71;47.27;102120.34;5063065;28;20051;-47
2022/08/30 01:10:23;;;;;;;1.50;0.80;;;;;;;23.67;46.85;102127.97;5064464;28;20620;-50
2022/08/30 01:12:48;;;;;;;1.10;0.63;;;;;;;23.69;47.15;102131.34;5055228;28;20070;-45
2022/08/30 01:15:14;;;;;;;0.90;0.70;;;;;;;23.65;46.99;102136.28;5056986;28;20142;-48
2022/08/30 01:17:41;;;;;;;0.70;0.50;;;;;;;23.68;47.21;102132.38;5051029;28;20148;-49
2022/08/30 01:20:10;;;;;;;0.98;0.60;;;;;;;23.66;47.16;102134.41;5063677;28;20028;-45
2022/08/30 01:22:44;;;;;;;1.45;0.80;;;;;;;23.66;47.03;102140.72;5064428;28;20032;-47
2022/08/30 01:25:10;;;;;;;0.93;0.57;;;;;;;23.65;46.94;102141.72;5062180;28;20031;-44
2022/08/30 01:27:44;;;;;;;0.80;0.57;;;;;;;23.63;47.00;102142.88;5058048;28;20033;-43
2022/08/30 01:30:10;;;;;;;0.80;0.60;;;;;;;23.63;47.19;102142.88;5044033;28;20021;-45
2022/08/30 01:32:43;;;;;;;1.30;0.63;;;;;;;23.64;47.11;102150.00;5061150;28;20485;-47
2022/08/30 01:35:10;;;;;;;1.08;0.60;;;;;;;23.63;47.16;102145.59;5051162;28;20020;-47
2022/08/30 01:37:36;;;;;;;0.70;0.60;;;;;;;23.63;47.02;102142.88;5064065;28;20028;-44
2022/08/30 01:40:03;;;;;;;0.80;0.70;;;;;;;23.62;47.06;102149.34;5048298;28;20055;-43
2022/08/30 01:42:28;;;;;;;0.63;0.50;;;;;;;23.60;47.26;102141.34;5052274;28;20108;-45
2022/08/30 01:44:53;;;;;;;0.65;0.65;;;;;;;23.59;47.07;102144.25;5057680;28;20036;-48
2022/08/30 01:47:20;;;;;;;0.90;0.68;;;;;;;23.59;46.98;102149.66;5052125;28;20107;-46
2022/08/30 01:49:46;;;;;;;0.93;0.68;;;;;;;23.59;46.83;102149.66;5062986;28;20023;-44
2022/08/30 01:52:12;;;;;;;0.95;0.70;;;;;;;23.58;47.10;102153.41;5056398;28;20021;-45
2022/08/30 01:54:39;;;;;;;0.90;0.55;;;;;;;23.58;47.10;102150.69;5057391;28;20021;-43
2022/08/30 01:57:07;;;;;;;0.70;0.70;;;;;;;23.58;46.84;102147.97;5049264;28;20115;-43
2022/08/30 01:59:32;;;;;;;0.70;0.50;;;;;;;23.57;46.80;102154.41;5051176;28;20029;-43
2022/08/30 02:01:58;;;;;;;1.00;0.60;;;;;;;23.56;46.90;102155.44;5060049;28;20051;-44
2022/08/30 02:04:25;;;;;;;0.98;0.70;;;;;;;23.56;46.73;102144.56;5063420;28;20477;-48
2022/08/30 02:06:51;;;;;;;0.85;0.50;;;;;;;23.54;47.13;102147.47;5061423;28;20036;-45
2022/08/30 02:09:16;;;;;;;0.68;0.52;;;;;;;23.54;46.92;102142.03;5051384;28;20008;-45
2022/08/30 02:11:42;;;;;;;0.93;0.63;;;;;;;23.54;46.94;102146.63;5060203;28;20051;-42
2022/08/30 02:14:07;;;;;;;0.47;0.35;;;;;;;23.53;47.01;102148.47;5048996;28;20033;-46
2022/08/30 02:16:32;;;;;;;1.85;0.65;;;;;;;23.53;46.87;102144.91;5063102;28;20028;-48
2022/08/30 02:18:58;;;;;;;2.22;0.77;;;;;;;23.52;46.85;102146.78;5058293;28;20013;-48
2022/08/30 02:21:24;;;;;;;0.73;0.50;;;;;;;23.52;47.07;102149.47;5063439;28;20063;-47
2022/08/30 02:23:50;;;;;;;0.47;0.40;;;;;;;23.51;47.14;102152.38;5063133;28;20021;-45
2022/08/30 02:26:16;;;;;;;0.75;0.60;;;;;;;23.52;46.75;102152.19;5063317;28;20112;-45
2022/08/30 02:28:43;;;;;;;0.98;0.80;;;;;;;23.50;46.88;102142.56;5048813;28;20152;-46
2022/08/30 02:31:08;;;;;;;0.80;0.50;;;;;;;23.50;47.02;102137.97;5049217;28;20025;-46
2022/08/30 02:33:34;;;;;;;0.93;0.70;;;;;;;23.50;46.80;102145.25;5053869;28;20268;-46
2022/08/30 02:35:59;;;;;;;0.63;0.52;;;;;;;23.49;47.13;102144.41;5056638;28;20088;-43
2022/08/30 02:38:25;;;;;;;1.02;0.52;;;;;;;23.48;46.97;102145.41;5056697;28;20033;-45
2022/08/30 02:40:51;;;;;;;0.82;0.60;;;;;;;23.47;46.78;102141.00;5055283;28;20028;-46
2022/08/30 02:43:18;;;;;;;0.85;0.60;;;;;;;23.47;46.92;102140.16;5058566;28;20076;-48
2022/08/30 02:45:43;;;;;;;0.68;0.60;;;;;;;23.46;46.90;102133.88;5053413;28;20263;-45
2022/08/30 02:48:08;;;;;;;0.68;0.60;;;;;;;23.43;46.91;102140.50;5061701;28;20021;-46
2022/08/30 02:50:34;;;;;;;0.68;0.40;;;;;;;23.44;46.79;102135.91;5062704;28;20021;-44
2022/08/30 02:52:59;;;;;;;0.65;0.65;;;;;;;23.44;46.89;102139.47;5061113;28;20036;-45
2022/08/30 02:55:24;;;;;;;0.65;0.50;;;;;;;23.44;46.87;102133.19;5055957;28;20028;-43
2022/08/30 02:57:50;;;;;;;1.02;0.60;;;;;;;23.43;46.93;102135.06;5049342;28;20041;-43
2022/08/30 03:00:17;;;;;;;0.50;0.40;;;;;;;23.42;47.01;102138.81;5062445;28;20043;-43
2022/08/30 03:02:42;;;;;;;0.95;0.60;;;;;;;23.43;46.67;102134.22;5061845;28;20032;-45
2022/08/30 03:05:09;;;;;;;0.68;0.52;;;;;;;23.40;46.71;102120.97;5059116;28;20142;-46
2022/08/30 03:07:34;;;;;;;1.00;0.65;;;;;;;23.42;46.98;102127.09;5062360;28;20029;-44
2022/08/30 03:09:59;;;;;;;1.00;0.50;;;;;;;23.40;46.58;102129.97;5062338;28;20158;-45
2022/08/30 03:12:25;;;;;;;0.82;0.50;;;;;;;23.40;46.73;102129.97;5062137;28;20398;-47
2022/08/30 03:14:50;;;;;;;0.60;0.57;;;;;;;23.34;46.83;102122.50;5062568;28;20017;-47
2022/08/30 03:17:16;;;;;;;1.02;0.50;;;;;;;23.34;46.80;102125.22;5061519;28;20025;-45
2022/08/30 03:19:43;;;;;;;0.82;0.60;;;;;;;23.38;46.68;102134.72;5062032;28;20092;-45
2022/08/30 03:22:08;;;;;;;0.55;0.40;;;;;;;23.37;46.62;102133.03;5048706;28;20049;-43
2022/08/30 03:24:33;;;;;;;0.63;0.40;;;;;;;23.36;46.81;102125.91;5056655;28;20056;-46
2022/08/30 03:26:59;;;;;;;0.70;0.50;;;;;;;23.36;46.77;102122.34;5054313;28;20021;-44
2022/08/30 03:29:24;;;;;;;0.50;0.50;;;;;;;23.35;46.73;102118.78;5058223;28;20021;-45
2022/08/30 03:31:51;;;;;;;0.77;0.63;;;;;;;23.34;46.93;102125.22;5051221;28;20033;-45
2022/08/30 03:34:16;;;;;;;0.60;0.47;;;;;;;23.33;46.99;102120.81;5048443;28;20052;-46
2022/08/30 03:36:42;;;;;;;0.50;0.50;;;;;;;23.32;46.71;102121.84;5061326;28;20049;-50
2022/08/30 03:39:08;;;;;;;0.77;0.60;;;;;;;23.33;46.59;102125.41;5061944;28;20047;-45
2022/08/30 03:41:34;;;;;;;0.70;0.50;;;;;;;23.30;46.94;102123.03;5061157;28;20024;-45
2022/08/30 03:44:00;;;;;;;1.10;0.70;;;;;;;23.32;46.71;102131.81;5062085;28;20033;-46
2022/08/30 03:46:26;;;;;;;0.57;0.47;;;;;;;23.31;46.67;102127.44;5061267;28;20021;-50
2022/08/30 03:48:51;;;;;;;0.60;0.60;;;;;;;23.30;46.75;102129.28;5062306;28;20025;-50
2022/08/30 03:51:17;;;;;;;1.02;0.60;;;;;;;23.29;46.88;102133.03;5064600;28;20033;-47
2022/08/30 03:53:43;;;;;;;0.80;0.60;;;;;;;23.29;46.63;102130.31;5052575;28;20051;-43
2022/08/30 03:56:08;;;;;;;0.82;0.45;;;;;;;23.28;46.68;102134.06;5052699;28;20054;-45
2022/08/30 03:58:34;;;;;;;0.73;0.50;;;;;;;23.28;46.51;102135.88;5065391;28;20028;-45
2022/08/30 04:00:59;;;;;;;0.52;0.40;;;;;;;23.26;46.68;102133.34;5066245;28;20029;-46
2022/08/30 04:03:25;;;;;;;0.65;0.50;;;;;;;23.26;46.72;102137.94;5061847;28;20029;-49
2022/08/30 04:05:54;;;;;;;0.40;0.40;;;;;;;23.24;46.79;102129.97;5054795;28;20032;-45
2022/08/30 04:08:20;;;;;;;0.60;0.57;;;;;;;23.20;46.71;102131.34;5058758;28;20029;-44
2022/08/30 04:10:46;;;;;;;0.82;0.63;;;;;;;23.25;46.72;102137.09;5065478;28;20076;-44
2022/08/30 04:13:15;;;;;;;0.80;0.57;;;;;;;23.24;46.89;102129.97;5063622;28;20123;-45
2022/08/30 04:15:40;;;;;;;0.43;0.40;;;;;;;23.23;46.61;102127.41;5060456;28;20047;-44
2022/08/30 04:18:06;;;;;;;0.57;0.55;;;;;;;23.23;46.70;102132.84;5050614;28;20478;-42
2022/08/30 04:20:31;;;;;;;0.45;0.40;;;;;;;23.22;46.70;102134.72;5054544;28;20025;-44
2022/08/30 04:22:56;;;;;;;1.10;0.60;;;;;;;23.21;46.88;102130.31;5057512;28;20013;-43
2022/08/30 04:25:21;;;;;;;0.98;0.60;;;;;;;23.21;46.87;102135.72;5064635;28;20287;-44
2022/08/30 04:27:48;;;;;;;0.73;0.60;;;;;;;23.20;46.68;102136.75;5059681;28;20047;-44
2022/08/30 04:30:14;;;;;;;0.70;0.50;;;;;;;23.20;46.56;102134.88;5065354;28;20021;-47
2022/08/30 04:32:40;;;;;;;1.25;0.70;;;;;;;23.20;46.78;102140.31;5064632;28;20544;-46
2022/08/30 04:35:05;;;;;;;0.82;0.43;;;;;;;23.19;46.90;102144.06;5065379;28;20032;-45
2022/08/30 04:37:31;;;;;;;1.02;0.70;;;;;;;23.19;46.74;102133.19;5062266;28;20026;-44
2022/08/30 04:39:59;;;;;;;0.68;0.60;;;;;;;23.15;46.64;102144.53;5056797;28;20060;-46
2022/08/30 04:42:25;;;;;;;1.40;0.70;;;;;;;23.19;47.01;102151.31;5064638;28;20086;-45
2022/08/30 04:44:51;;;;;;;0.50;0.50;;;;;;;23.17;46.80;102148.78;5059816;28;20036;-50
2022/08/30 04:47:17;;;;;;;0.95;0.40;;;;;;;23.16;46.87;102155.22;5059185;28;20041;-45
2022/08/30 04:49:42;;;;;;;0.57;0.57;;;;;;;23.18;46.67;102153.19;5054040;28;20048;-45
2022/08/30 04:52:09;;;;;;;1.23;0.88;;;;;;;23.17;47.00;102151.50;5049813;28;20021;-48
2022/08/30 04:54:35;;;;;;;0.73;0.55;;;;;;;23.16;46.83;102159.81;5054365;28;20017;-46
2022/08/30 04:57:00;;;;;;;0.88;0.60;;;;;;;23.16;46.95;102154.38;5052643;28;20052;-48
2022/08/30 04:59:25;;;;;;;0.93;0.60;;;;;;;23.17;46.98;102156.06;5050234;28;20030;-47
2022/08/30 05:01:51;;;;;;;0.95;0.68;;;;;;;23.17;46.98;102161.50;5052401;28;20089;-47
2022/08/30 05:04:16;;;;;;;0.95;0.70;;;;;;;23.12;47.11;102155.72;5054007;28;20139;-46
2022/08/30 05:06:42;;;;;;;1.08;0.63;;;;;;;23.15;47.09;102161.69;5049294;28;20068;-46
2022/08/30 05:09:07;;;;;;;0.90;0.52;;;;;;;23.16;47.02;102162.53;5064734;28;20017;-49
2022/08/30 05:11:32;;;;;;;0.70;0.52;;;;;;;23.15;47.12;102160.81;5051675;28;20030;-45
2022/08/30 05:13:57;;;;;;;0.90;0.50;;;;;;;23.15;47.09;102168.94;5063256;28;20056;-45
2022/08/30 05:16:23;;;;;;;1.15;0.77;;;;;;;23.14;47.21;102169.97;5064606;28;20494;-45
2022/08/30 05:18:50;;;;;;;1.17;0.90;;;;;;;23.15;47.23;102172.53;5063431;28;20025;-47
2022/08/30 05:21:18;;;;;;;0.50;0.50;;;;;;;23.15;46.93;102174.38;5057650;28;20018;-47
2022/08/30 05:23:46;;;;;;;0.95;0.60;;;;;;;23.13;47.10;102174.53;5063078;28;20367;-46
2022/08/30 05:26:20;;;;;;;0.95;0.68;;;;;;;23.14;47.32;102180.81;5052746;28;20028;-45
2022/08/30 05:28:46;;;;;;;1.67;0.70;;;;;;;23.15;47.20;102180.66;5049877;28;20021;-45
2022/08/30 05:31:15;;;;;;;0.73;0.50;;;;;;;23.15;47.42;102185.22;5064634;28;20020;-49
2022/08/30 05:33:40;;;;;;;;;;;;;;;23.12;47.04;102194.56;5054330;28;20505;-45
2022/08/30 05:36:06;;;;;;;0.73;0.60;;;;;;;23.07;47.30;102175.22;5050238;28;19908;-45
2022/08/30 05:38:31;;;;;;;0.82;0.43;;;;;;;23.10;47.16;102183.00;5052708;28;20026;-48
2022/08/30 05:40:57;;;;;;;0.73;0.50;;;;;;;23.08;47.23;102176.91;5061787;28;20040;-49
2022/08/30 05:43:22;;;;;;;0.95;0.80;;;;;;;23.12;47.32;102194.56;5063763;28;20040;-43
2022/08/30 05:45:47;;;;;;;0.77;0.60;;;;;;;23.13;47.26;102198.97;5064454;28;20435;-46
2022/08/30 05:48:12;;;;;;;0.40;0.40;;;;;;;23.12;47.10;102194.56;5063471;28;20020;-48
2022/08/30 05:50:38;;;;;;;0.50;0.50;;;;;;;23.08;47.29;102179.63;5063990;28;20063;-46
2022/08/30 05:53:03;;;;;;;1.00;0.70;;;;;;;23.12;47.41;102183.72;5063998;28;20024;-47
2022/08/30 05:55:28;;;;;;;0.55;0.50;;;;;;;23.12;47.34;102185.56;5064003;28;20078;-45
2022/08/30 05:57:53;;;;;;;0.60;0.45;;;;;;;23.12;47.87;102186.41;5063849;28;20025;-48
2022/08/30 06:00:19;;;;;;;0.65;0.40;;;;;;;23.12;47.39;102196.44;5054841;28;20018;-47
2022/08/30 06:02:44;;;;;;;0.60;0.60;;;;;;;23.13;47.39;102195.41;5046735;28;20075;-49
2022/08/30 06:05:11;;;;;;;0.70;0.50;;;;;;;23.13;47.28;102195.41;5056677;28;20025;-44
2022/08/30 06:07:36;;;;;;;1.10;0.60;;;;;;;23.14;47.41;102197.09;5052682;28;20031;-44
2022/08/30 06:10:03;;;;;;;0.70;0.57;;;;;;;23.13;47.12;102195.41;5049275;28;20112;-47
2022/08/30 06:12:28;;;;;;;0.57;0.50;;;;;;;23.14;47.32;102200.66;5055850;28;20030;-49
2022/08/30 06:14:54;;;;;;;0.50;0.50;;;;;;;23.15;47.40;102190.66;5055235;28;20064;-44
2022/08/30 06:17:19;;;;;;;0.50;0.50;;;;;;;23.14;47.51;102189.81;5057780;28;20031;-46
2022/08/30 06:19:44;;;;;;;0.70;0.57;;;;;;;23.14;47.32;102197.94;5053818;28;20033;-47
2022/08/30 06:22:09;;;;;;;1.35;0.63;;;;;;;23.14;47.27;102195.22;5048077;28;20028;-43
2022/08/30 06:24:35;;;;;;;0.95;0.70;;;;;;;23.15;47.43;102196.94;5054795;28;20055;-44
2022/08/30 06:27:01;;;;;;;0.60;0.50;;;;;;;23.16;47.54;102200.50;5057365;28;20035;-48
2022/08/30 06:29:26;;;;;;;1.05;0.60;;;;;;;23.16;47.26;102201.34;5058555;28;20029;-48
2022/08/30 06:31:51;;;;;;;1.00;0.60;;;;;;;23.17;46.93;102204.91;5062392;28;20039;-44
2022/08/30 06:34:17;;;;;;;0.60;0.50;;;;;;;23.15;47.53;102190.66;5058624;28;20020;-48
2022/08/30 06:36:42;;;;;;;0.50;0.40;;;;;;;23.16;47.36;102190.50;5053842;28;20025;-45
2022/08/30 06:39:08;;;;;;;0.60;0.43;;;;;;;23.17;47.33;102191.34;5048824;28;20544;-48
2022/08/30 06:41:35;;;;;;;0.50;0.40;;;;;;;23.18;47.29;102191.16;5055120;28;20030;-46
2022/08/30 06:44:02;;;;;;;0.82;0.60;;;;;;;23.19;47.54;102195.59;5059994;28;20051;-48
2022/08/30 06:46:31;;;;;;;0.57;0.40;;;;;;;23.19;47.27;102192.88;5056876;28;20029;-45
2022/08/30 06:48:56;;;;;;;0.75;0.60;;;;;;;23.17;47.21;102191.34;5050742;28;20022;-51
2022/08/30 06:51:27;;;;;;;0.60;0.50;;;;;;;23.19;47.48;102194.72;5062240;28;20036;-51
2022/08/30 06:53:52;;;;;;;0.50;0.47;;;;;;;23.18;47.06;102190.31;5063040;28;20086;-48
2022/08/30 06:56:18;;;;;;;1.00;0.65;;;;;;;23.18;47.07;102196.59;5059209;28;20503;-45
2022/08/30 06:58:44;;;;;;;0.98;0.57;;;;;;;23.18;47.26;102193.88;5052398;28;20051;-47
2022/08/30 07:01:15;;;;;;;0.70;0.52;;;;;;;23.19;47.24;102208.28;5062278;28;20037;-46
2022/08/30 07:03:41;;;;;;;0.65;0.50;;;;;;;23.18;47.41;102204.72;5053418;28;20363;-46
2022/08/30 07:06:07;;;;;;;0.80;0.50;;;;;;;23.17;47.17;102205.75;5055260;28;20621;-45
2022/08/30 07:08:32;;;;;;;1.10;0.77;;;;;;;23.19;47.38;102213.72;5052817;28;20024;-46
2022/08/30 07:10:58;;;;;;;0.85;0.50;;;;;;;23.20;47.09;102218.16;5057733;28;20564;-46
2022/08/30 07:13:23;;;;;;;1.08;0.70;;;;;;;23.20;47.21;102219.00;5058992;28;20100;-42
2022/08/30 07:15:49;;;;;;;0.43;0.40;;;;;;;23.20;47.30;102220.88;5051006;28;20024;-44
2022/08/30 07:21:08;;;;;;;1.00;0.50;;;;;;;23.22;47.36;102217.97;5053776;28;20079;-43
2022/08/30 07:23:34;;;;;;;0.70;0.70;;;;;;;23.21;47.28;102211.72;5059803;28;20120;-48
2022/08/30 07:26:03;;;;;;;0.75;0.60;;;;;;;23.22;47.32;102212.56;5058633;28;20504;-44
2022/08/30 07:28:28;;;;;;;0.68;0.55;;;;;;;23.22;47.18;102213.41;5062580;28;20025;-48
2022/08/30 07:30:53;;;;;;;0.68;0.60;;;;;;;23.24;47.47;102218.69;5052969;28;20025;-48
2022/08/30 07:33:19;;;;;;;0.75;0.40;;;;;;;23.23;47.18;102203.38;5059973;28;20024;-43
2022/08/30 07:35:44;;;;;;;1.08;0.80;;;;;;;23.22;47.45;102204.41;5056278;28;20086;-46
2022/08/30 07:38:13;;;;;;;0.60;0.45;;;;;;;23.25;47.33;102214.94;5060087;28;20024;-47
2022/08/30 07:40:38;;;;;;;0.60;0.55;;;;;;;23.25;47.29;102215.78;5054023;28;20393;-48
2022/08/30 07:43:03;;;;;;;0.80;0.40;;;;;;;23.24;47.09;102216.81;5058140;28;20025;-46
2022/08/30 07:45:29;;;;;;;0.93;0.63;;;;;;;23.27;47.32;102221.03;5059995;28;20097;-44
2022/08/30 07:47:55;;;;;;;1.02;0.50;;;;;;;23.27;47.14;102216.47;5056350;28;20029;-44
2022/08/30 07:50:21;;;;;;;0.40;0.40;;;;;;;23.27;47.33;102211.03;5056477;28;20016;-43
2022/08/30 07:52:46;;;;;;;1.05;0.77;;;;;;;23.29;47.17;102213.59;5055432;28;20056;-49
2022/08/30 07:55:11;;;;;;;0.50;0.50;;;;;;;23.29;47.21;102214.44;5059414;28;20072;-47
2022/08/30 07:57:36;;;;;;;0.82;0.60;;;;;;;23.30;47.16;102224.28;5059858;28;20052;-46
2022/08/30 08:00:04;;;;;;;0.63;0.63;;;;;;;23.31;47.29;102220.53;5056636;28;20099;-46
2022/08/30 08:02:29;;;;;;;0.68;0.50;;;;;;;23.29;47.30;102217.16;5057525;28;20055;-42
2022/08/30 08:04:54;;;;;;;0.65;0.40;;;;;;;23.32;47.28;102213.25;5059377;28;20021;-41
2022/08/30 08:07:19;;;;;;;0.63;0.50;;;;;;;23.34;47.42;102219.38;5052372;28;20035;-44
2022/08/30 08:09:45;;;;;;;0.77;0.50;;;;;;;23.34;47.20;102222.09;5063018;28;20470;-43
2022/08/30 08:12:10;;;;;;;0.60;0.47;;;;;;;23.30;47.22;102209.84;5057992;28;20016;-41
2022/08/30 08:14:36;;;;;;;0.70;0.45;;;;;;;23.37;47.27;102213.63;5055613;28;20028;-43
2022/08/30 08:17:01;;;;;;;0.88;0.63;;;;;;;23.38;47.33;102215.31;5058562;28;20044;-43
2022/08/30 08:19:27;;;;;;;0.70;0.50;;;;;;;23.40;47.17;102219.53;5057400;28;20021;-45
2022/08/30 08:21:58;;;;;;;0.65;0.50;;;;;;;23.39;47.21;102220.56;5058721;28;20032;-44
2022/08/30 08:24:27;;;;;;;1.02;0.55;;;;;;;23.42;47.29;102219.38;5061987;28;20032;-43
2022/08/30 08:26:53;;;;;;;0.90;0.50;;;;;;;23.41;47.25;102217.69;5057042;28;20037;-44
2022/08/30 08:29:18;;;;;;;0.60;0.50;;;;;;;23.44;47.38;102218.19;5057050;28;20024;-45
2022/08/30 08:31:45;;;;;;;0.68;0.40;;;;;;;23.43;47.36;102210.22;5063489;28;20079;-44
2022/08/30 08:34:11;;;;;;;0.60;0.43;;;;;;;23.47;47.10;102219.72;5050035;28;20017;-45
2022/08/30 08:36:36;;;;;;;0.75;0.60;;;;;;;23.50;47.42;102215.84;5056989;28;20040;-41
2022/08/30 08:39:03;;;;;;;0.75;0.60;;;;;;;23.53;47.42;102215.47;5057238;28;20032;-45
2022/08/30 08:41:41;;;;;;;0.70;0.40;;;;;;;23.59;47.21;102214.84;5057853;28;20029;-47
2022/08/30 08:44:19;;;;;;;0.60;0.53;;;;;;;23.63;47.32;102222.47;5056227;28;20079;-45
2022/08/30 08:47:14;;;;;;;0.82;0.50;;;;;;;23.72;47.31;102220.63;5075689;28;20144;-43
2022/08/30 08:49:41;;;;;;;1.35;0.73;;;;;;;23.78;47.39;102222.66;5054631;28;20029;-48
2022/08/30 08:55:04;;;;;;;1.05;0.50;;;;;;;23.94;47.15;102228.09;5053416;28;20082;-46
2022/08/30 08:57:33;;;;;;;0.80;0.50;;;;;;;24.02;46.75;102218.25;5053519;28;20049;-42
2022/08/30 08:59:58;;;;;;;1.27;0.40;;;;;;;24.08;46.53;102217.56;5051614;28;20589;-44
2022/08/30 09:02:27;;;;;;;1.42;0.60;;;;;;;24.15;46.33;102215.88;5056062;28;20564;-45
2022/08/30 09:04:53;;;;;;;;;;;;;;;24.16;46.20;102218.41;5062567;28;20063;-44
2022/08/30 09:07:21;;;;;;;0.60;0.50;;;;;;;24.18;45.87;102213.66;5057901;28;19908;-47
2022/08/30 09:09:47;;;;;;;1.42;0.70;;;;;;;24.31;46.06;102225.88;5044240;28;20032;-47
2022/08/30 09:12:12;;;;;;;0.60;0.40;;;;;;;24.33;45.59;102216.50;5059376;28;20025;-44
2022/08/30 09:14:42;;;;;;;0.80;0.60;;;;;;;24.44;45.57;102231.66;5058609;28;20402;-45
2022/08/30 09:17:12;;;;;;;1.17;0.60;;;;;;;24.49;45.27;102220.25;5057155;28;20032;-46
2022/08/30 09:19:42;;;;;;;0.60;0.40;;;;;;;24.54;45.34;102215.97;5057873;28;20029;-43
2022/08/30 09:22:14;;;;;;;0.73;0.47;;;;;;;24.61;45.37;102216.97;5055658;28;20037;-42
2022/08/30 09:24:45;;;;;;;0.43;0.40;;;;;;;24.65;45.11;102209.31;5055829;28;20063;-47
2022/08/30 09:27:38;;;;;;;0.73;0.50;;;;;;;24.72;44.97;102217.63;5061369;28;20061;-46
2022/08/30 09:30:22;;;;;;;0.80;0.70;;;;;;;24.76;44.78;102213.50;5053876;28;20858;-42
2022/08/30 09:33:01;;;;;;;0.75;0.52;;;;;;;24.76;44.68;102200.75;5054620;28;20025;-45
2022/08/30 09:35:52;;;;;;;0.70;0.50;;;;;;;24.85;44.67;102216.06;5062361;28;20104;-46
2022/08/30 09:38:21;;;;;;;1.23;0.60;;;;;;;24.89;44.58;102216.53;5054792;28;20021;-44
2022/08/30 09:40:51;;;;;;;0.98;0.50;;;;;;;24.93;44.50;102205.13;5061026;28;20093;-41
2022/08/30 09:43:17;;;;;;;1.75;0.60;;;;;;;24.95;44.43;102207.66;5057662;28;20056;-46
2022/08/30 09:45:46;;;;;;;1.05;0.47;;;;;;;25.00;44.23;102213.41;5057656;28;20029;-41
2022/08/30 09:48:21;;;;;;;0.88;0.55;;;;;;;25.07;44.20;102210.84;5053747;28;20033;-44
2022/08/30 09:51:12;;;;;;;0.50;0.32;;;;;;;25.10;44.10;102205.91;5050983;28;20017;-45
2022/08/30 09:53:56;;;;;;;0.95;0.47;;;;;;;25.13;44.09;102205.56;5050602;28;20104;-42
2022/08/30 09:56:46;;;;;;;0.80;0.52;;;;;;;25.16;44.02;102207.91;5056522;28;20087;-47
2022/08/30 09:59:29;;;;;;;0.73;0.50;;;;;;;25.19;43.74;102206.72;5054825;28;20393;-45
2022/08/30 10:02:32;;;;;;;0.68;0.45;;;;;;;25.24;43.74;102206.19;5046283;28;20029;-43
2022/08/30 10:05:06;;;;;;;1.35;0.55;;;;;;;25.27;43.75;102201.19;5060670;28;20017;-42
2022/08/30 10:07:43;;;;;;;0.73;0.50;;;;;;;25.33;43.64;102202.38;5056232;28;20060;-44
2022/08/30 10:10:26;;;;;;;0.73;0.35;;;;;;;25.36;43.28;102204.72;5053242;28;20021;-44
2022/08/30 10:13:01;;;;;;;1.67;0.60;;;;;;;25.38;43.35;102195.34;5054194;28;20025;-44
2022/08/30 10:15:38;;;;;;;1.05;0.57;;;;;;;25.42;43.03;102193.13;5055163;28;20064;-45
2022/08/30 10:18:11;;;;;;;1.37;0.50;;;;;;;25.42;43.13;102207.59;5060678;28;20025;-47
2022/08/30 10:20:59;;;;;;;0.77;0.38;;;;;;;25.48;42.88;102200.56;5053174;28;20025;-46
2022/08/30 10:23:28;;;;;;;0.70;0.40;;;;;;;25.48;42.85;102186.09;5048105;28;20040;-46
2022/08/30 10:26:06;;;;;;;1.08;0.50;;;;;;;25.51;42.63;102200.19;5059527;28;20689;-49
2022/08/30 10:28:45;;;;;;;0.93;0.52;;;;;;;25.52;42.66;102201.03;5053088;28;20048;-45
2022/08/30 10:31:26;;;;;;;0.70;0.47;;;;;;;25.51;42.67;102197.47;5055067;28;20021;-45
2022/08/30 10:33:56;;;;;;;1.73;0.50;;;;;;;25.53;42.40;102203.59;5052005;28;20044;-44
2022/08/30 10:36:26;;;;;;;1.15;0.50;;;;;;;25.53;42.38;102205.44;5057220;28;20096;-44
2022/08/30 10:38:52;;;;;;;0.77;0.50;;;;;;;25.52;42.42;102201.88;5055203;28;20041;-45
2022/08/30 10:41:28;;;;;;;0.93;0.40;;;;;;;25.54;42.36;102204.44;5051852;28;20032;-45
2022/08/30 10:44:01;;;;;;;0.68;0.40;;;;;;;25.53;42.42;102198.16;5055476;28;20084;-48
2022/08/30 10:46:49;;;;;;;1.65;0.63;;;;;;;25.52;42.23;102201.88;5053595;28;20017;-44
2022/08/30 10:49:20;;;;;;;1.70;0.68;;;;;;;25.51;42.41;102199.34;5048860;28;20082;-45
2022/08/30 10:52:11;;;;;;;1.35;0.47;;;;;;;25.49;42.50;102199.56;5058344;28;20032;-48
2022/08/30 10:54:46;;;;;;;0.75;0.60;;;;;;;25.47;42.35;102190.69;5054305;28;20027;-46
2022/08/30 10:57:11;;;;;;;1.40;0.60;;;;;;;25.45;42.42;102200.09;5056941;28;20586;-43
2022/08/30 10:59:41;;;;;;;1.05;0.70;;;;;;;25.43;42.35;102192.09;5052992;28;20029;-45
2022/08/30 11:02:21;;;;;;;0.70;0.40;;;;;;;25.41;42.50;102194.16;5054884;28;20028;-47
2022/08/30 11:05:13;;;;;;;1.55;0.63;;;;;;;25.37;42.43;102190.94;5056947;28;20051;-50
2022/08/30 11:08:24;;;;;;;0.73;0.50;;;;;;;25.34;42.66;102193.19;5051307;28;20028;-44
2022/08/30 11:11:02;;;;;;;0.73;0.40;;;;;;;25.29;42.77;102187.44;5037209;28;20048;-43
2022/08/30 11:13:30;;;;;;;0.88;0.55;;;;;;;25.24;42.98;102181.69;5021511;28;20037;-43
2022/08/30 11:16:02;;;;;;;0.60;0.38;;;;;;;25.23;42.68;102179.97;5038469;28;20033;-43
2022/08/30 11:18:30;;;;;;;0.82;0.63;;;;;;;25.20;43.02;102183.06;5037036;28;20096;-45
2022/08/30 11:21:18;;;;;;;0.80;0.40;;;;;;;25.16;43.11;102193.47;5037034;28;20034;-41
2022/08/30 11:24:08;;;;;;;0.70;0.60;;;;;;;25.15;43.17;102191.78;5020282;28;20034;-42
2022/08/30 11:26:45;;;;;;;0.65;0.40;;;;;;;25.14;43.19;102187.34;5038102;28;20069;-43
2022/08/30 11:29:28;;;;;;;1.00;0.40;;;;;;;25.12;43.34;102182.09;5039089;28;20017;-43
2022/08/30 11:31:58;;;;;;;0.88;0.50;;;;;;;25.11;43.33;102185.00;5035299;28;20113;-46
2022/08/30 11:34:45;;;;;;;0.52;0.40;;;;;;;25.11;43.33;102190.44;5037364;28;20111;-45
2022/08/30 11:37:39;;;;;;;0.77;0.40;;;;;;;25.12;43.46;102186.69;5038039;28;20029;-43
2022/08/30 11:40:11;;;;;;;0.63;0.43;;;;;;;25.13;43.73;102178.34;5035853;28;20157;-42